Current Weather Conditions: station 63103

sailwx.info

Wind from 150 at 13 knots

Wave height 2.6 meters (8 feet), 7 second period

Air temperature 8.7° C
Dewpoint 4.3° C

Last reported at 2014-Oct-30 16:00 UTC.
Time now 2014-Oct-30 18:14 UTC

Location: N 61°12' E 001°06'.
View on Google Maps.

See reports from other nearby stations

  
Tides and Currents Weather Stations Pressure Air Temp Water Temp Dewpoint Dewpoint Depression Visibility Wind Speed Wind Dir Waves Ship Positions
date/time (UTC)wind fromknots sea level pressurealtimeterstation pressurevisibilityair tempwater tempwave heightnotes
2014-Oct-30 16:00 150 13 8.7 2.6
2014-Oct-30 15:00 130 15 9.2 2.8
2014-Oct-30 14:00 120 11 9.2 3.0
2014-Oct-30 13:00 130 12 9.1 2.8
2014-Oct-30 12:00 140 11 8.9 2.8
2014-Oct-30 11:00 140 10 8.7 2.6
2014-Oct-30 10:00 140 8 8.3 2.6
2014-Oct-30 09:00 120 6 8.0 2.7
2014-Oct-30 08:00 110 5 7.9 2.5
2014-Oct-30 07:00 120 4 7.8 2.6
2014-Oct-30 06:00 8.0 2.6
2014-Oct-30 05:00 330 1 8.3 2.6
2014-Oct-30 04:00 290 3 7.8 2.7
2014-Oct-30 03:00 320 5 7.7 2.6
2014-Oct-30 02:00 300 5 7.9 2.7
2014-Oct-30 01:00 310 6 7.7 2.8
2014-Oct-30 00:00 280 10 8.1 2.7
2014-Oct-29 23:00 280 9 7.9 2.6
2014-Oct-29 22:00 280 11 7.9 2.7
2014-Oct-29 21:00 290 11 7.7 2.7
2014-Oct-29 20:00 300 11 7.7 2.6
2014-Oct-29 19:00 290 13 7.8 2.5
2014-Oct-29 18:00 300 15 7.9 2.4
2014-Oct-29 17:00 300 14 8.0 2.5
2014-Oct-29 16:00 290 15 8.1 2.3
2014-Oct-29 15:00 300 14 8.1 2.5
2014-Oct-29 14:00 290 13 8.7 2.5
2014-Oct-29 13:00 300 13 8.6 2.4
2014-Oct-29 12:00 300 12 8.4 2.4
2014-Oct-29 11:00 300 13 8.6 2.6
2014-Oct-29 10:00 300 12 8.2 2.4
2014-Oct-29 09:00 310 14 8.1 2.4
2014-Oct-29 08:00 320 19 7.8 2.5
2014-Oct-29 07:00 300 14 7.9 2.6
2014-Oct-29 06:00 290 13 7.9 2.6
2014-Oct-29 05:00 290 14 7.6 2.6
2014-Oct-29 04:00 270 10 7.0 2.6
2014-Oct-29 03:00 260 15 7.9 2.8
2014-Oct-29 02:00 270 6 7.3 2.5
2014-Oct-29 01:00 310 5 6.8 2.8
2014-Oct-29 00:00 250 11 8.2 3.0
2014-Oct-28 23:00 270 11 8.4 3.0
2014-Oct-28 22:00 290 12 8.3 3.1
2014-Oct-28 21:00 290 13 8.2 3.1
2014-Oct-28 20:00 290 18 8.6 3.4
2014-Oct-28 19:00 280 18 8.4 3.0
2014-Oct-28 18:00 280 18 8.8 3.2